sensor_id;sensor_type;location;lat;lon;timestamp;P1;durP1;ratioP1;P2;durP2;ratioP2
37791;SDS011;29527;55.766;37.570;2024-03-23T00:52:13;38.33;;;24.63;;
37791;SDS011;29527;55.766;37.570;2024-03-23T00:54:38;41.05;;;24.92;;
37791;SDS011;29527;55.766;37.570;2024-03-23T00:57:03;42.65;;;25.27;;
37791;SDS011;29527;55.766;37.570;2024-03-23T00:59:29;41.70;;;24.92;;
37791;SDS011;29527;55.766;37.570;2024-03-23T01:01:56;39.85;;;25.77;;
37791;SDS011;29527;55.766;37.570;2024-03-23T01:04:21;43.53;;;25.85;;
37791;SDS011;29527;55.766;37.570;2024-03-23T01:06:47;41.50;;;25.10;;
37791;SDS011;29527;55.766;37.570;2024-03-23T01:09:12;41.95;;;24.35;;
37791;SDS011;29527;55.766;37.570;2024-03-23T01:11:38;42.13;;;25.98;;
37791;SDS011;29527;55.766;37.570;2024-03-23T01:14:04;43.90;;;26.23;;
37791;SDS011;29527;55.766;37.570;2024-03-23T01:16:29;42.67;;;25.30;;
37791;SDS011;29527;55.766;37.570;2024-03-23T01:18:54;45.85;;;27.05;;
37791;SDS011;29527;55.766;37.570;2024-03-23T01:21:20;39.92;;;25.00;;
37791;SDS011;29527;55.766;37.570;2024-03-23T01:23:45;40.95;;;27.13;;
37791;SDS011;29527;55.766;37.570;2024-03-23T01:26:11;43.03;;;26.00;;
37791;SDS011;29527;55.766;37.570;2024-03-23T01:28:36;44.78;;;25.45;;
37791;SDS011;29527;55.766;37.570;2024-03-23T01:31:01;43.78;;;24.77;;
37791;SDS011;29527;55.766;37.570;2024-03-23T01:33:27;42.53;;;25.15;;
37791;SDS011;29527;55.766;37.570;2024-03-23T01:35:52;44.20;;;26.40;;
37791;SDS011;29527;55.766;37.570;2024-03-23T01:38:18;41.90;;;25.35;;
37791;SDS011;29527;55.766;37.570;2024-03-23T01:40:43;41.85;;;25.17;;
37791;SDS011;29527;55.766;37.570;2024-03-23T01:43:08;50.03;;;26.48;;
37791;SDS011;29527;55.766;37.570;2024-03-23T01:45:34;42.15;;;24.35;;
37791;SDS011;29527;55.766;37.570;2024-03-23T01:48:00;44.80;;;26.48;;
37791;SDS011;29527;55.766;37.570;2024-03-23T01:50:26;42.70;;;25.90;;
37791;SDS011;29527;55.766;37.570;2024-03-23T01:52:51;42.38;;;26.40;;
37791;SDS011;29527;55.766;37.570;2024-03-23T01:55:17;42.17;;;25.38;;
37791;SDS011;29527;55.766;37.570;2024-03-23T01:57:43;40.63;;;25.10;;
37791;SDS011;29527;55.766;37.570;2024-03-23T02:00:09;40.83;;;24.30;;
37791;SDS011;29527;55.766;37.570;2024-03-23T02:02:46;38.20;;;23.52;;
37791;SDS011;29527;55.766;37.570;2024-03-23T02:05:11;43.97;;;26.20;;
37791;SDS011;29527;55.766;37.570;2024-03-23T02:07:40;44.25;;;26.30;;
37791;SDS011;29527;55.766;37.570;2024-03-23T02:10:06;47.88;;;26.45;;
37791;SDS011;29527;55.766;37.570;2024-03-23T02:12:32;41.63;;;25.63;;
37791;SDS011;29527;55.766;37.570;2024-03-23T02:14:58;44.20;;;25.15;;
37791;SDS011;29527;55.766;37.570;2024-03-23T02:17:23;44.88;;;26.42;;
37791;SDS011;29527;55.766;37.570;2024-03-23T02:19:49;46.67;;;26.98;;
37791;SDS011;29527;55.766;37.570;2024-03-23T02:22:14;42.00;;;25.02;;
37791;SDS011;29527;55.766;37.570;2024-03-23T02:24:41;43.17;;;25.10;;
37791;SDS011;29527;55.766;37.570;2024-03-23T02:27:06;43.53;;;25.50;;
37791;SDS011;29527;55.766;37.570;2024-03-23T02:29:31;45.95;;;26.00;;
37791;SDS011;29527;55.766;37.570;2024-03-23T02:31:57;44.47;;;26.23;;
37791;SDS011;29527;55.766;37.570;2024-03-23T02:34:24;44.22;;;26.10;;
37791;SDS011;29527;55.766;37.570;2024-03-23T02:36:49;38.80;;;24.83;;
37791;SDS011;29527;55.766;37.570;2024-03-23T02:39:14;43.45;;;25.58;;
37791;SDS011;29527;55.766;37.570;2024-03-23T02:41:40;44.10;;;25.13;;
37791;SDS011;29527;55.766;37.570;2024-03-23T02:44:05;39.55;;;25.38;;
37791;SDS011;29527;55.766;37.570;2024-03-23T02:46:31;41.55;;;24.73;;
37791;SDS011;29527;55.766;37.570;2024-03-23T02:48:57;47.70;;;26.98;;
37791;SDS011;29527;55.766;37.570;2024-03-23T02:51:22;44.90;;;25.90;;
37791;SDS011;29527;55.766;37.570;2024-03-23T02:53:48;41.55;;;24.58;;
37791;SDS011;29527;55.766;37.570;2024-03-23T02:56:13;42.55;;;25.48;;
37791;SDS011;29527;55.766;37.570;2024-03-23T02:58:41;42.95;;;25.50;;
37791;SDS011;29527;55.766;37.570;2024-03-23T03:01:07;42.75;;;26.08;;
37791;SDS011;29527;55.766;37.570;2024-03-23T03:03:32;45.03;;;25.33;;
37791;SDS011;29527;55.766;37.570;2024-03-23T03:05:57;39.65;;;26.10;;
37791;SDS011;29527;55.766;37.570;2024-03-23T03:08:23;43.63;;;26.30;;
37791;SDS011;29527;55.766;37.570;2024-03-23T03:10:48;39.08;;;25.33;;
37791;SDS011;29527;55.766;37.570;2024-03-23T03:13:14;45.30;;;25.00;;
37791;SDS011;29527;55.766;37.570;2024-03-23T03:15:43;39.92;;;24.73;;
37791;SDS011;29527;55.766;37.570;2024-03-23T03:18:08;44.92;;;26.08;;
37791;SDS011;29527;55.766;37.570;2024-03-23T03:20:34;44.08;;;25.75;;
37791;SDS011;29527;55.766;37.570;2024-03-23T03:23:00;40.75;;;25.60;;
37791;SDS011;29527;55.766;37.570;2024-03-23T03:25:25;41.40;;;25.05;;
37791;SDS011;29527;55.766;37.570;2024-03-23T03:27:50;39.60;;;24.45;;
37791;SDS011;29527;55.766;37.570;2024-03-23T03:30:16;42.60;;;25.50;;
37791;SDS011;29527;55.766;37.570;2024-03-23T03:32:41;41.20;;;25.45;;
37791;SDS011;29527;55.766;37.570;2024-03-23T03:35:07;49.15;;;25.50;;
37791;SDS011;29527;55.766;37.570;2024-03-23T03:37:32;46.45;;;25.65;;
37791;SDS011;29527;55.766;37.570;2024-03-23T03:39:57;44.25;;;25.60;;
37791;SDS011;29527;55.766;37.570;2024-03-23T03:42:23;37.55;;;25.17;;
37791;SDS011;29527;55.766;37.570;2024-03-23T03:44:48;44.00;;;25.55;;
37791;SDS011;29527;55.766;37.570;2024-03-23T03:47:13;38.58;;;24.48;;
37791;SDS011;29527;55.766;37.570;2024-03-23T03:49:39;41.75;;;25.88;;
37791;SDS011;29527;55.766;37.570;2024-03-23T03:52:04;40.75;;;25.55;;
37791;SDS011;29527;55.766;37.570;2024-03-23T03:54:30;40.55;;;24.70;;
37791;SDS011;29527;55.766;37.570;2024-03-23T03:56:55;40.45;;;25.65;;
37791;SDS011;29527;55.766;37.570;2024-03-23T03:59:20;40.70;;;25.50;;
37791;SDS011;29527;55.766;37.570;2024-03-23T04:01:46;40.50;;;24.52;;
37791;SDS011;29527;55.766;37.570;2024-03-23T04:04:11;39.30;;;25.15;;
37791;SDS011;29527;55.766;37.570;2024-03-23T04:06:37;36.90;;;24.25;;
37791;SDS011;29527;55.766;37.570;2024-03-23T04:09:02;44.15;;;25.38;;
37791;SDS011;29527;55.766;37.570;2024-03-23T04:11:28;38.33;;;23.55;;
37791;SDS011;29527;55.766;37.570;2024-03-23T04:13:53;40.30;;;23.90;;
37791;SDS011;29527;55.766;37.570;2024-03-23T04:16:28;39.40;;;24.08;;
37791;SDS011;29527;55.766;37.570;2024-03-23T04:18:53;39.33;;;23.15;;
37791;SDS011;29527;55.766;37.570;2024-03-23T04:21:19;37.85;;;22.75;;
37791;SDS011;29527;55.766;37.570;2024-03-23T04:23:44;42.35;;;24.00;;
37791;SDS011;29527;55.766;37.570;2024-03-23T04:26:10;38.08;;;23.70;;
37791;SDS011;29527;55.766;37.570;2024-03-23T04:28:36;37.05;;;23.52;;
37791;SDS011;29527;55.766;37.570;2024-03-23T04:31:04;34.53;;;22.90;;
37791;SDS011;29527;55.766;37.570;2024-03-23T04:33:30;37.85;;;23.48;;
37791;SDS011;29527;55.766;37.570;2024-03-23T04:35:55;40.83;;;22.73;;
37791;SDS011;29527;55.766;37.570;2024-03-23T04:38:21;38.63;;;23.00;;
37791;SDS011;29527;55.766;37.570;2024-03-23T04:40:53;35.67;;;22.70;;
37791;SDS011;29527;55.766;37.570;2024-03-23T04:43:19;39.08;;;23.40;;
37791;SDS011;29527;55.766;37.570;2024-03-23T04:45:44;34.90;;;21.83;;
37791;SDS011;29527;55.766;37.570;2024-03-23T04:48:10;34.45;;;22.20;;
37791;SDS011;29527;55.766;37.570;2024-03-23T04:50:35;39.20;;;22.17;;
37791;SDS011;29527;55.766;37.570;2024-03-23T04:53:00;36.80;;;22.60;;
37791;SDS011;29527;55.766;37.570;2024-03-23T04:55:26;35.20;;;22.58;;
37791;SDS011;29527;55.766;37.570;2024-03-23T04:57:51;32.08;;;20.90;;
37791;SDS011;29527;55.766;37.570;2024-03-23T05:00:17;34.88;;;21.80;;
37791;SDS011;29527;55.766;37.570;2024-03-23T05:02:43;34.35;;;21.17;;
37791;SDS011;29527;55.766;37.570;2024-03-23T05:05:08;33.25;;;21.00;;
37791;SDS011;29527;55.766;37.570;2024-03-23T05:07:34;31.10;;;20.40;;
37791;SDS011;29527;55.766;37.570;2024-03-23T05:09:59;30.50;;;20.38;;
37791;SDS011;29527;55.766;37.570;2024-03-23T05:12:24;30.98;;;20.77;;
37791;SDS011;29527;55.766;37.570;2024-03-23T05:14:50;29.88;;;20.23;;
37791;SDS011;29527;55.766;37.570;2024-03-23T05:17:16;33.60;;;20.42;;
37791;SDS011;29527;55.766;37.570;2024-03-23T05:19:42;29.25;;;19.88;;
37791;SDS011;29527;55.766;37.570;2024-03-23T05:22:07;32.95;;;20.23;;
37791;SDS011;29527;55.766;37.570;2024-03-23T05:24:32;30.38;;;20.08;;
37791;SDS011;29527;55.766;37.570;2024-03-23T05:26:58;29.33;;;18.48;;
37791;SDS011;29527;55.766;37.570;2024-03-23T05:29:24;29.85;;;19.35;;
37791;SDS011;29527;55.766;37.570;2024-03-23T05:31:51;26.85;;;18.98;;
37791;SDS011;29527;55.766;37.570;2024-03-23T05:34:17;28.02;;;18.80;;
37791;SDS011;29527;55.766;37.570;2024-03-23T05:36:42;27.27;;;17.90;;
37791;SDS011;29527;55.766;37.570;2024-03-23T05:39:08;26.83;;;19.17;;
37791;SDS011;29527;55.766;37.570;2024-03-23T05:41:33;30.25;;;18.80;;
37791;SDS011;29527;55.766;37.570;2024-03-23T05:44:01;26.23;;;17.92;;
37791;SDS011;29527;55.766;37.570;2024-03-23T05:46:26;27.65;;;18.00;;
37791;SDS011;29527;55.766;37.570;2024-03-23T05:48:52;28.17;;;19.00;;
37791;SDS011;29527;55.766;37.570;2024-03-23T05:51:17;26.88;;;17.27;;
37791;SDS011;29527;55.766;37.570;2024-03-23T05:53:43;26.15;;;17.48;;
37791;SDS011;29527;55.766;37.570;2024-03-23T05:56:08;24.67;;;16.85;;
37791;SDS011;29527;55.766;37.570;2024-03-23T05:58:34;27.17;;;16.67;;
37791;SDS011;29527;55.766;37.570;2024-03-23T06:01:00;23.55;;;16.73;;
37791;SDS011;29527;55.766;37.570;2024-03-23T06:03:26;24.67;;;16.10;;
37791;SDS011;29527;55.766;37.570;2024-03-23T06:05:52;22.17;;;16.42;;
37791;SDS011;29527;55.766;37.570;2024-03-23T06:08:20;22.75;;;15.55;;
37791;SDS011;29527;55.766;37.570;2024-03-23T06:10:46;22.40;;;15.55;;
37791;SDS011;29527;55.766;37.570;2024-03-23T06:13:12;25.25;;;16.35;;
37791;SDS011;29527;55.766;37.570;2024-03-23T06:15:37;24.00;;;16.20;;
37791;SDS011;29527;55.766;37.570;2024-03-23T06:18:03;22.92;;;16.30;;
37791;SDS011;29527;55.766;37.570;2024-03-23T06:20:33;24.42;;;16.80;;
37791;SDS011;29527;55.766;37.570;2024-03-23T06:22:59;24.60;;;16.05;;
37791;SDS011;29527;55.766;37.570;2024-03-23T06:25:24;22.65;;;15.57;;
37791;SDS011;29527;55.766;37.570;2024-03-23T06:27:49;19.90;;;14.90;;
37791;SDS011;29527;55.766;37.570;2024-03-23T06:30:15;22.75;;;15.63;;
37791;SDS011;29527;55.766;37.570;2024-03-23T06:32:40;19.70;;;14.68;;
37791;SDS011;29527;55.766;37.570;2024-03-23T06:35:06;23.50;;;14.85;;
37791;SDS011;29527;55.766;37.570;2024-03-23T06:37:34;20.65;;;14.27;;
37791;SDS011;29527;55.766;37.570;2024-03-23T06:39:59;22.70;;;15.05;;
37791;SDS011;29527;55.766;37.570;2024-03-23T06:42:24;22.80;;;14.68;;
37791;SDS011;29527;55.766;37.570;2024-03-23T06:44:50;19.63;;;13.85;;
37791;SDS011;29527;55.766;37.570;2024-03-23T06:47:15;25.00;;;14.82;;
37791;SDS011;29527;55.766;37.570;2024-03-23T06:49:40;17.85;;;12.45;;
37791;SDS011;29527;55.766;37.570;2024-03-23T06:52:06;21.17;;;13.35;;
37791;SDS011;29527;55.766;37.570;2024-03-23T06:54:31;19.58;;;13.20;;
37791;SDS011;29527;55.766;37.570;2024-03-23T06:56:57;17.50;;;13.10;;
37791;SDS011;29527;55.766;37.570;2024-03-23T06:59:22;21.38;;;14.60;;
37791;SDS011;29527;55.766;37.570;2024-03-23T07:01:47;21.50;;;14.10;;
37791;SDS011;29527;55.766;37.570;2024-03-23T07:04:13;18.42;;;13.23;;
37791;SDS011;29527;55.766;37.570;2024-03-23T07:06:42;19.38;;;13.38;;
37791;SDS011;29527;55.766;37.570;2024-03-23T07:09:07;17.10;;;12.93;;
37791;SDS011;29527;55.766;37.570;2024-03-23T07:11:33;17.58;;;13.30;;
37791;SDS011;29527;55.766;37.570;2024-03-23T07:13:58;18.63;;;12.40;;
37791;SDS011;29527;55.766;37.570;2024-03-23T07:16:23;23.38;;;13.38;;
37791;SDS011;29527;55.766;37.570;2024-03-23T07:18:50;16.45;;;12.55;;
37791;SDS011;29527;55.766;37.570;2024-03-23T07:21:15;17.27;;;12.70;;
37791;SDS011;29527;55.766;37.570;2024-03-23T07:23:43;17.02;;;12.55;;
37791;SDS011;29527;55.766;37.570;2024-03-23T07:26:12;16.48;;;12.40;;
37791;SDS011;29527;55.766;37.570;2024-03-23T07:28:37;16.35;;;12.15;;
37791;SDS011;29527;55.766;37.570;2024-03-23T07:31:04;16.73;;;12.27;;
37791;SDS011;29527;55.766;37.570;2024-03-23T07:33:29;15.25;;;12.35;;
37791;SDS011;29527;55.766;37.570;2024-03-23T07:35:55;21.58;;;12.60;;
37791;SDS011;29527;55.766;37.570;2024-03-23T07:38:20;15.73;;;11.93;;
37791;SDS011;29527;55.766;37.570;2024-03-23T07:40:46;18.80;;;12.13;;
37791;SDS011;29527;55.766;37.570;2024-03-23T07:43:11;19.48;;;11.93;;
37791;SDS011;29527;55.766;37.570;2024-03-23T07:45:37;16.40;;;12.07;;
37791;SDS011;29527;55.766;37.570;2024-03-23T07:48:03;17.77;;;11.57;;
37791;SDS011;29527;55.766;37.570;2024-03-23T07:50:29;14.95;;;10.82;;
37791;SDS011;29527;55.766;37.570;2024-03-23T07:52:54;15.45;;;12.13;;
37791;SDS011;29527;55.766;37.570;2024-03-23T07:55:20;17.15;;;11.35;;
37791;SDS011;29527;55.766;37.570;2024-03-23T07:57:46;13.55;;;10.68;;
37791;SDS011;29527;55.766;37.570;2024-03-23T08:00:12;14.15;;;11.40;;
37791;SDS011;29527;55.766;37.570;2024-03-23T08:02:38;15.35;;;11.25;;
37791;SDS011;29527;55.766;37.570;2024-03-23T08:05:04;14.80;;;10.98;;
37791;SDS011;29527;55.766;37.570;2024-03-23T08:07:29;18.38;;;10.88;;
37791;SDS011;29527;55.766;37.570;2024-03-23T08:09:54;13.75;;;10.90;;
37791;SDS011;29527;55.766;37.570;2024-03-23T08:12:20;17.83;;;11.20;;
37791;SDS011;29527;55.766;37.570;2024-03-23T08:14:45;14.88;;;11.52;;
37791;SDS011;29527;55.766;37.570;2024-03-23T08:17:11;17.02;;;11.32;;
37791;SDS011;29527;55.766;37.570;2024-03-23T08:19:36;15.32;;;11.15;;
37791;SDS011;29527;55.766;37.570;2024-03-23T08:22:01;15.75;;;10.65;;
37791;SDS011;29527;55.766;37.570;2024-03-23T08:24:27;15.40;;;10.43;;
37791;SDS011;29527;55.766;37.570;2024-03-23T08:26:54;13.23;;;10.43;;
37791;SDS011;29527;55.766;37.570;2024-03-23T08:29:19;16.38;;;10.45;;
37791;SDS011;29527;55.766;37.570;2024-03-23T08:31:45;14.80;;;10.40;;
37791;SDS011;29527;55.766;37.570;2024-03-23T08:34:10;15.02;;;10.20;;
37791;SDS011;29527;55.766;37.570;2024-03-23T08:36:35;15.70;;;10.75;;
37791;SDS011;29527;55.766;37.570;2024-03-23T08:39:01;16.65;;;10.10;;
37791;SDS011;29527;55.766;37.570;2024-03-23T08:41:26;15.25;;;10.60;;
37791;SDS011;29527;55.766;37.570;2024-03-23T08:43:51;13.43;;;10.43;;
37791;SDS011;29527;55.766;37.570;2024-03-23T08:46:17;13.88;;;10.35;;
37791;SDS011;29527;55.766;37.570;2024-03-23T08:48:43;11.75;;;9.38;;
37791;SDS011;29527;55.766;37.570;2024-03-23T08:51:10;13.38;;;9.75;;
37791;SDS011;29527;55.766;37.570;2024-03-23T08:53:36;12.73;;;9.70;;
37791;SDS011;29527;55.766;37.570;2024-03-23T08:56:02;14.15;;;9.68;;
37791;SDS011;29527;55.766;37.570;2024-03-23T08:58:29;13.52;;;9.23;;
37791;SDS011;29527;55.766;37.570;2024-03-23T09:00:55;11.93;;;9.13;;
37791;SDS011;29527;55.766;37.570;2024-03-23T09:03:24;12.85;;;9.48;;
37791;SDS011;29527;55.766;37.570;2024-03-23T09:05:51;12.68;;;8.88;;
37791;SDS011;29527;55.766;37.570;2024-03-23T09:08:17;11.18;;;9.38;;
37791;SDS011;29527;55.766;37.570;2024-03-23T09:10:43;12.07;;;9.48;;
37791;SDS011;29527;55.766;37.570;2024-03-23T09:13:08;11.45;;;9.27;;
37791;SDS011;29527;55.766;37.570;2024-03-23T09:15:34;12.30;;;9.55;;
37791;SDS011;29527;55.766;37.570;2024-03-23T09:18:00;10.45;;;8.77;;
37791;SDS011;29527;55.766;37.570;2024-03-23T09:20:25;9.73;;;8.32;;
37791;SDS011;29527;55.766;37.570;2024-03-23T09:22:51;11.45;;;8.60;;
37791;SDS011;29527;55.766;37.570;2024-03-23T09:25:16;12.20;;;9.00;;
37791;SDS011;29527;55.766;37.570;2024-03-23T09:27:44;12.00;;;9.10;;
37791;SDS011;29527;55.766;37.570;2024-03-23T09:30:10;12.45;;;8.25;;
37791;SDS011;29527;55.766;37.570;2024-03-23T09:32:35;13.23;;;8.85;;
37791;SDS011;29527;55.766;37.570;2024-03-23T09:35:01;13.07;;;8.60;;
37791;SDS011;29527;55.766;37.570;2024-03-23T09:37:26;11.73;;;8.90;;
37791;SDS011;29527;55.766;37.570;2024-03-23T09:39:52;14.43;;;9.40;;
37791;SDS011;29527;55.766;37.570;2024-03-23T09:42:17;11.25;;;8.85;;
37791;SDS011;29527;55.766;37.570;2024-03-23T09:44:43;11.70;;;9.00;;
37791;SDS011;29527;55.766;37.570;2024-03-23T09:47:09;11.50;;;9.07;;
37791;SDS011;29527;55.766;37.570;2024-03-23T09:49:34;15.50;;;9.43;;
37791;SDS011;29527;55.766;37.570;2024-03-23T09:52:02;14.30;;;9.45;;
37791;SDS011;29527;55.766;37.570;2024-03-23T09:54:27;11.57;;;9.30;;
37791;SDS011;29527;55.766;37.570;2024-03-23T09:56:53;10.10;;;8.57;;
37791;SDS011;29527;55.766;37.570;2024-03-23T09:59:18;10.85;;;8.52;;
37791;SDS011;29527;55.766;37.570;2024-03-23T10:01:43;13.23;;;9.20;;
37791;SDS011;29527;55.766;37.570;2024-03-23T10:04:09;12.23;;;9.27;;
37791;SDS011;29527;55.766;37.570;2024-03-23T10:06:34;10.63;;;8.90;;
37791;SDS011;29527;55.766;37.570;2024-03-23T10:09:00;10.88;;;8.30;;
37791;SDS011;29527;55.766;37.570;2024-03-23T10:11:25;11.98;;;9.02;;
37791;SDS011;29527;55.766;37.570;2024-03-23T10:13:52;10.70;;;8.60;;
37791;SDS011;29527;55.766;37.570;2024-03-23T10:16:21;10.65;;;8.95;;
37791;SDS011;29527;55.766;37.570;2024-03-23T10:18:48;11.88;;;9.38;;
37791;SDS011;29527;55.766;37.570;2024-03-23T10:21:14;11.68;;;9.23;;
37791;SDS011;29527;55.766;37.570;2024-03-23T10:23:40;13.18;;;9.65;;
37791;SDS011;29527;55.766;37.570;2024-03-23T10:29:14;11.33;;;9.00;;
37791;SDS011;29527;55.766;37.570;2024-03-23T10:31:35;11.40;;;9.25;;
37791;SDS011;29527;55.766;37.570;2024-03-23T10:34:02;10.95;;;9.45;;
37791;SDS011;29527;55.766;37.570;2024-03-23T10:36:28;13.15;;;9.95;;
37791;SDS011;29527;55.766;37.570;2024-03-23T10:38:54;16.77;;;11.18;;
37791;SDS011;29527;55.766;37.570;2024-03-23T10:41:19;13.40;;;10.07;;
37791;SDS011;29527;55.766;37.570;2024-03-23T10:43:46;14.80;;;10.05;;
37791;SDS011;29527;55.766;37.570;2024-03-23T10:46:11;12.65;;;10.38;;
37791;SDS011;29527;55.766;37.570;2024-03-23T10:48:37;14.05;;;10.48;;
37791;SDS011;29527;55.766;37.570;2024-03-23T10:51:03;13.35;;;10.65;;
37791;SDS011;29527;55.766;37.570;2024-03-23T10:53:29;13.90;;;9.48;;
37791;SDS011;29527;55.766;37.570;2024-03-23T10:55:55;12.40;;;9.90;;
37791;SDS011;29527;55.766;37.570;2024-03-23T10:58:21;12.25;;;10.05;;
37791;SDS011;29527;55.766;37.570;2024-03-23T11:00:48;12.95;;;10.40;;
37791;SDS011;29527;55.766;37.570;2024-03-23T11:03:33;13.43;;;10.65;;
37791;SDS011;29527;55.766;37.570;2024-03-23T11:05:59;13.48;;;10.90;;
37791;SDS011;29527;55.766;37.570;2024-03-23T11:08:37;13.88;;;10.68;;
37791;SDS011;29527;55.766;37.570;2024-03-23T11:13:38;16.42;;;11.82;;
37791;SDS011;29527;55.766;37.570;2024-03-23T11:16:13;16.27;;;12.02;;
37791;SDS011;29527;55.766;37.570;2024-03-23T11:18:39;13.68;;;10.55;;
37791;SDS011;29527;55.766;37.570;2024-03-23T11:21:06;15.77;;;11.15;;
37791;SDS011;29527;55.766;37.570;2024-03-23T11:23:31;13.77;;;10.68;;
37791;SDS011;29527;55.766;37.570;2024-03-23T11:25:57;16.63;;;11.82;;
37791;SDS011;29527;55.766;37.570;2024-03-23T11:28:22;16.92;;;11.77;;
37791;SDS011;29527;55.766;37.570;2024-03-23T11:30:47;15.90;;;12.02;;
37791;SDS011;29527;55.766;37.570;2024-03-23T11:33:13;17.83;;;12.40;;
37791;SDS011;29527;55.766;37.570;2024-03-23T11:35:39;14.10;;;11.77;;
37791;SDS011;29527;55.766;37.570;2024-03-23T11:38:14;16.00;;;12.43;;
37791;SDS011;29527;55.766;37.570;2024-03-23T11:40:44;15.50;;;11.63;;
37791;SDS011;29527;55.766;37.570;2024-03-23T11:43:10;13.57;;;11.55;;
37791;SDS011;29527;55.766;37.570;2024-03-23T11:45:37;14.65;;;11.52;;
37791;SDS011;29527;55.766;37.570;2024-03-23T11:50:33;18.52;;;12.80;;
37791;SDS011;29527;55.766;37.570;2024-03-23T11:55:54;14.98;;;10.93;;
37791;SDS011;29527;55.766;37.570;2024-03-23T11:58:19;15.95;;;11.57;;
37791;SDS011;29527;55.766;37.570;2024-03-23T12:03:22;18.02;;;12.48;;
37791;SDS011;29527;55.766;37.570;2024-03-23T12:05:52;17.83;;;12.38;;
37791;SDS011;29527;55.766;37.570;2024-03-23T12:08:22;14.77;;;11.63;;
37791;SDS011;29527;55.766;37.570;2024-03-23T12:10:49;14.82;;;11.40;;
37791;SDS011;29527;55.766;37.570;2024-03-23T12:13:16;14.20;;;11.48;;
37791;SDS011;29527;55.766;37.570;2024-03-23T12:15:42;14.13;;;11.63;;
37791;SDS011;29527;55.766;37.570;2024-03-23T12:18:08;17.23;;;12.20;;
37791;SDS011;29527;55.766;37.570;2024-03-23T12:20:33;14.88;;;11.88;;
37791;SDS011;29527;55.766;37.570;2024-03-23T12:23:05;13.45;;;11.55;;
37791;SDS011;29527;55.766;37.570;2024-03-23T12:25:31;17.15;;;13.02;;
37791;SDS011;29527;55.766;37.570;2024-03-23T12:28:00;15.65;;;11.80;;
37791;SDS011;29527;55.766;37.570;2024-03-23T12:30:25;19.23;;;13.45;;
37791;SDS011;29527;55.766;37.570;2024-03-23T12:32:51;21.13;;;13.15;;
37791;SDS011;29527;55.766;37.570;2024-03-23T12:35:16;16.88;;;12.18;;
37791;SDS011;29527;55.766;37.570;2024-03-23T12:37:41;15.70;;;12.57;;
37791;SDS011;29527;55.766;37.570;2024-03-23T12:40:07;15.88;;;12.50;;
37791;SDS011;29527;55.766;37.570;2024-03-23T12:42:32;18.38;;;13.02;;
37791;SDS011;29527;55.766;37.570;2024-03-23T12:44:58;16.33;;;12.88;;
37791;SDS011;29527;55.766;37.570;2024-03-23T12:47:23;19.08;;;13.13;;
37791;SDS011;29527;55.766;37.570;2024-03-23T12:49:48;17.45;;;12.45;;
37791;SDS011;29527;55.766;37.570;2024-03-23T12:52:15;17.13;;;13.20;;
37791;SDS011;29527;55.766;37.570;2024-03-23T12:54:40;18.85;;;13.30;;
37791;SDS011;29527;55.766;37.570;2024-03-23T12:57:06;20.67;;;13.98;;
37791;SDS011;29527;55.766;37.570;2024-03-23T12:59:32;20.77;;;14.48;;
37791;SDS011;29527;55.766;37.570;2024-03-23T13:01:57;17.42;;;13.52;;
37791;SDS011;29527;55.766;37.570;2024-03-23T13:04:22;17.80;;;12.75;;
37791;SDS011;29527;55.766;37.570;2024-03-23T13:06:48;20.95;;;14.57;;
37791;SDS011;29527;55.766;37.570;2024-03-23T13:09:13;19.90;;;13.90;;
37791;SDS011;29527;55.766;37.570;2024-03-23T13:11:39;17.90;;;13.40;;
37791;SDS011;29527;55.766;37.570;2024-03-23T13:14:04;19.35;;;13.50;;
37791;SDS011;29527;55.766;37.570;2024-03-23T13:16:30;18.92;;;13.95;;
37791;SDS011;29527;55.766;37.570;2024-03-23T13:18:56;19.13;;;14.10;;
37791;SDS011;29527;55.766;37.570;2024-03-23T13:21:21;18.98;;;13.90;;
37791;SDS011;29527;55.766;37.570;2024-03-23T13:23:47;19.25;;;13.57;;
37791;SDS011;29527;55.766;37.570;2024-03-23T13:26:13;20.25;;;13.85;;
37791;SDS011;29527;55.766;37.570;2024-03-23T13:28:39;17.90;;;13.27;;
37791;SDS011;29527;55.766;37.570;2024-03-23T13:31:04;18.05;;;13.45;;
37791;SDS011;29527;55.766;37.570;2024-03-23T13:33:30;18.45;;;13.00;;
37791;SDS011;29527;55.766;37.570;2024-03-23T13:35:58;18.55;;;13.15;;
37791;SDS011;29527;55.766;37.570;2024-03-23T13:38:23;18.95;;;14.20;;
37791;SDS011;29527;55.766;37.570;2024-03-23T13:40:52;18.00;;;12.75;;
37791;SDS011;29527;55.766;37.570;2024-03-23T13:43:18;17.77;;;12.43;;
37791;SDS011;29527;55.766;37.570;2024-03-23T13:45:44;15.75;;;11.20;;
37791;SDS011;29527;55.766;37.570;2024-03-23T13:48:09;14.88;;;10.73;;
37791;SDS011;29527;55.766;37.570;2024-03-23T13:50:35;17.38;;;11.85;;
37791;SDS011;29527;55.766;37.570;2024-03-23T13:53:00;13.85;;;10.95;;
37791;SDS011;29527;55.766;37.570;2024-03-23T13:55:26;13.82;;;10.45;;
37791;SDS011;29527;55.766;37.570;2024-03-23T13:57:51;14.52;;;10.38;;
37791;SDS011;29527;55.766;37.570;2024-03-23T14:00:17;15.10;;;10.68;;
37791;SDS011;29527;55.766;37.570;2024-03-23T14:02:43;13.77;;;10.32;;
37791;SDS011;29527;55.766;37.570;2024-03-23T14:05:09;16.05;;;10.40;;
37791;SDS011;29527;55.766;37.570;2024-03-23T14:07:34;15.15;;;11.32;;
37791;SDS011;29527;55.766;37.570;2024-03-23T14:10:02;13.25;;;10.02;;
37791;SDS011;29527;55.766;37.570;2024-03-23T14:12:28;13.35;;;10.07;;
37791;SDS011;29527;55.766;37.570;2024-03-23T14:14:54;13.77;;;9.95;;
37791;SDS011;29527;55.766;37.570;2024-03-23T14:17:20;13.20;;;9.45;;
37791;SDS011;29527;55.766;37.570;2024-03-23T14:19:45;11.77;;;9.10;;
37791;SDS011;29527;55.766;37.570;2024-03-23T14:22:11;16.58;;;10.35;;
37791;SDS011;29527;55.766;37.570;2024-03-23T14:24:36;12.35;;;9.40;;
37791;SDS011;29527;55.766;37.570;2024-03-23T14:27:02;12.20;;;9.65;;
37791;SDS011;29527;55.766;37.570;2024-03-23T14:29:30;13.40;;;9.23;;
37791;SDS011;29527;55.766;37.570;2024-03-23T14:31:55;12.10;;;9.57;;
37791;SDS011;29527;55.766;37.570;2024-03-23T14:34:21;14.30;;;10.30;;
37791;SDS011;29527;55.766;37.570;2024-03-23T14:36:46;14.32;;;10.13;;
37791;SDS011;29527;55.766;37.570;2024-03-23T14:39:12;14.32;;;10.25;;
37791;SDS011;29527;55.766;37.570;2024-03-23T14:41:38;11.50;;;8.82;;
37791;SDS011;29527;55.766;37.570;2024-03-23T14:44:03;14.02;;;10.18;;
37791;SDS011;29527;55.766;37.570;2024-03-23T14:46:29;14.23;;;10.10;;
37791;SDS011;29527;55.766;37.570;2024-03-23T14:48:54;12.80;;;10.18;;
37791;SDS011;29527;55.766;37.570;2024-03-23T14:51:20;14.60;;;10.10;;
37791;SDS011;29527;55.766;37.570;2024-03-23T14:53:47;14.40;;;9.68;;
37791;SDS011;29527;55.766;37.570;2024-03-23T14:56:14;13.57;;;9.70;;
37791;SDS011;29527;55.766;37.570;2024-03-23T14:58:41;13.00;;;9.65;;
37791;SDS011;29527;55.766;37.570;2024-03-23T15:01:07;12.70;;;9.73;;
37791;SDS011;29527;55.766;37.570;2024-03-23T15:03:37;12.40;;;9.95;;
37791;SDS011;29527;55.766;37.570;2024-03-23T15:06:08;13.18;;;9.52;;
37791;SDS011;29527;55.766;37.570;2024-03-23T15:08:34;10.85;;;8.77;;